createdAt,value
2018-12-22T00:00:23.026Z,11.34
2018-12-22T00:02:51.667Z,11.33
2018-12-22T00:05:20.471Z,11.34
2018-12-22T00:07:49.120Z,11.33
2018-12-22T00:10:17.689Z,11.30
2018-12-22T00:12:46.288Z,11.29
2018-12-22T00:15:14.872Z,11.23
2018-12-22T00:17:43.472Z,11.21
2018-12-22T00:20:12.023Z,11.18
2018-12-22T00:22:40.584Z,11.15
2018-12-22T00:25:09.183Z,11.13
2018-12-22T00:27:38.846Z,11.11
2018-12-22T00:30:08.032Z,11.08
2018-12-22T00:32:36.631Z,11.07
2018-12-22T00:35:06.000Z,11.06
2018-12-22T00:37:34.752Z,11.04
2018-12-22T00:40:03.497Z,11.04
2018-12-22T00:42:32.080Z,11.02
2018-12-22T00:45:00.717Z,11.01
2018-12-22T00:47:29.290Z,11.00
2018-12-22T00:49:57.926Z,10.99
2018-12-22T00:52:26.519Z,10.97
2018-12-22T00:54:55.063Z,10.96
2018-12-22T00:57:23.665Z,10.96
2018-12-22T00:59:52.313Z,10.95
2018-12-22T01:02:20.936Z,10.94
2018-12-22T01:04:49.575Z,10.96
2018-12-22T01:07:18.244Z,10.94
2018-12-22T01:09:46.895Z,10.96
2018-12-22T01:12:15.525Z,10.97
2018-12-22T01:14:44.108Z,10.99
2018-12-22T01:17:12.707Z,11.01
2018-12-22T01:19:41.315Z,11.02
2018-12-22T01:22:09.899Z,11.04
2018-12-22T01:24:38.593Z,11.05
2018-12-22T01:27:07.294Z,11.06
2018-12-22T01:29:35.887Z,11.07
2018-12-22T01:32:04.626Z,11.08
2018-12-22T01:34:33.223Z,11.07
2018-12-22T01:37:01.816Z,11.07
2018-12-22T01:39:30.402Z,11.10
2018-12-22T01:41:58.988Z,11.12
2018-12-22T01:44:27.572Z,11.12
2018-12-22T01:46:56.187Z,11.13
2018-12-22T01:49:26.535Z,11.12
2018-12-22T01:51:55.284Z,11.09
2018-12-22T01:54:23.864Z,11.06
2018-12-22T01:56:52.437Z,11.05
2018-12-22T01:59:21.036Z,11.04
2018-12-22T02:01:49.587Z,11.02
2018-12-22T02:04:18.179Z,11.02
2018-12-22T02:06:46.815Z,11.02
2018-12-22T02:09:15.423Z,11.01
2018-12-22T02:11:44.050Z,11.00
2018-12-22T02:14:12.628Z,11.00
2018-12-22T02:16:41.208Z,11.01
2018-12-22T02:19:09.794Z,11.01
2018-12-22T02:21:38.369Z,11.00
2018-12-22T02:24:06.972Z,11.00
2018-12-22T02:26:35.560Z,11.03
2018-12-22T02:29:04.283Z,11.04
2018-12-22T02:31:32.944Z,11.04
2018-12-22T02:34:01.597Z,11.05
2018-12-22T02:36:30.241Z,11.05
2018-12-22T02:38:58.941Z,11.06
2018-12-22T02:41:27.555Z,11.10
2018-12-22T02:43:56.155Z,11.10
2018-12-22T02:46:24.738Z,11.10
2018-12-22T02:48:53.323Z,11.10
2018-12-22T02:51:21.958Z,11.11
2018-12-22T02:53:50.555Z,11.12
2018-12-22T02:56:19.295Z,11.12
2018-12-22T02:58:47.854Z,11.13
2018-12-22T03:01:16.521Z,11.11
2018-12-22T03:03:45.151Z,11.11
2018-12-22T03:06:13.699Z,11.12
2018-12-22T03:08:42.285Z,11.11
2018-12-22T03:11:10.860Z,11.10
2018-12-22T03:13:39.484Z,11.11
2018-12-22T03:16:08.058Z,11.10
2018-12-22T03:18:36.958Z,11.09
2018-12-22T03:21:05.523Z,11.10
2018-12-22T03:23:34.117Z,11.11
2018-12-22T03:26:02.713Z,11.11
2018-12-22T03:28:31.345Z,11.12
2018-12-22T03:30:59.951Z,11.14
2018-12-22T03:33:28.568Z,11.14
2018-12-22T03:35:57.168Z,11.15
2018-12-22T03:38:25.720Z,11.14
2018-12-22T03:40:54.325Z,11.16
2018-12-22T03:43:23.074Z,11.16
2018-12-22T03:45:51.637Z,11.16
2018-12-22T03:48:20.235Z,11.16
2018-12-22T03:50:48.844Z,11.19
2018-12-22T03:53:17.414Z,11.19
2018-12-22T03:55:46.171Z,11.18
2018-12-22T03:58:14.800Z,11.18
2018-12-22T04:00:43.452Z,11.18
2018-12-22T04:03:12.081Z,11.18
2018-12-22T04:05:40.796Z,11.18
2018-12-22T04:08:09.481Z,11.20
2018-12-22T04:10:38.092Z,11.19
2018-12-22T04:13:06.724Z,11.19
2018-12-22T04:15:35.311Z,11.18
2018-12-22T04:18:03.888Z,11.19
2018-12-22T04:20:32.482Z,11.18
2018-12-22T04:23:01.055Z,11.17
2018-12-22T04:25:29.676Z,11.17
2018-12-22T04:27:58.279Z,11.14
2018-12-22T04:30:26.867Z,11.13
2018-12-22T04:32:55.451Z,11.10
2018-12-22T04:35:24.142Z,11.09
2018-12-22T04:37:52.751Z,11.06
2018-12-22T04:40:21.347Z,11.06
2018-12-22T04:42:49.984Z,11.04
2018-12-22T04:45:18.561Z,11.04
2018-12-22T04:47:47.205Z,11.02
2018-12-22T04:50:15.850Z,11.01
2018-12-22T04:52:44.413Z,10.99
2018-12-22T04:55:13.011Z,10.95
2018-12-22T04:57:41.638Z,10.94
2018-12-22T05:00:11.143Z,10.92
2018-12-22T05:02:39.725Z,10.91
2018-12-22T05:05:08.488Z,10.91
2018-12-22T05:07:39.489Z,10.89
2018-12-22T05:10:08.710Z,10.87
2018-12-22T05:12:37.371Z,10.88
2018-12-22T05:15:06.995Z,10.87
2018-12-22T05:17:35.594Z,10.88
2018-12-22T05:20:04.585Z,10.89
2018-12-22T05:22:33.252Z,10.89
2018-12-22T05:25:01.854Z,10.90
2018-12-22T05:27:30.515Z,10.91
2018-12-22T05:29:59.089Z,10.91
2018-12-22T05:32:27.688Z,10.92
2018-12-22T05:34:56.291Z,10.92
2018-12-22T05:37:24.872Z,10.92
2018-12-22T05:39:53.531Z,10.91
2018-12-22T05:42:22.219Z,10.92
2018-12-22T05:44:50.853Z,10.92
2018-12-22T05:47:19.451Z,10.94
2018-12-22T05:49:48.152Z,10.94
2018-12-22T05:52:16.735Z,10.94
2018-12-22T05:54:45.389Z,10.93
2018-12-22T05:57:13.977Z,10.92
2018-12-22T05:59:42.565Z,10.92
2018-12-22T06:02:11.195Z,10.91
2018-12-22T06:04:39.801Z,10.89
2018-12-22T06:07:08.451Z,10.87
2018-12-22T06:09:37.083Z,10.85
2018-12-22T06:12:05.704Z,10.86
2018-12-22T06:14:34.903Z,10.85
2018-12-22T06:17:03.752Z,10.85
2018-12-22T06:19:32.395Z,10.84
2018-12-22T06:22:01.000Z,10.85
2018-12-22T06:24:29.656Z,10.85
2018-12-22T06:26:58.231Z,10.84
2018-12-22T06:29:26.866Z,10.83
2018-12-22T06:31:55.503Z,10.82
2018-12-22T06:34:24.196Z,10.82
2018-12-22T06:36:52.884Z,10.82
2018-12-22T06:39:21.613Z,10.81
2018-12-22T06:41:50.247Z,10.82
2018-12-22T06:44:18.906Z,10.83
2018-12-22T06:46:47.518Z,10.83
2018-12-22T06:49:16.130Z,10.84
2018-12-22T06:51:44.939Z,10.85
2018-12-22T06:54:13.585Z,10.84
2018-12-22T06:56:42.191Z,10.84
2018-12-22T06:59:10.772Z,10.84
2018-12-22T07:01:39.448Z,10.83
2018-12-22T07:04:08.270Z,10.83
2018-12-22T07:06:36.990Z,10.80
2018-12-22T07:09:07.129Z,10.81
2018-12-22T07:11:36.029Z,10.81
2018-12-22T07:14:04.634Z,10.80
2018-12-22T07:16:33.289Z,10.80
2018-12-22T07:19:01.945Z,10.80
2018-12-22T07:21:30.589Z,10.82
2018-12-22T07:23:59.222Z,10.83
2018-12-22T07:26:27.823Z,10.84
2018-12-22T07:28:56.467Z,10.86
2018-12-22T07:31:25.118Z,10.86
2018-12-22T07:33:53.741Z,10.85
2018-12-22T07:36:22.490Z,10.81
2018-12-22T07:38:51.307Z,10.76
2018-12-22T07:48:21.061Z,10.69
2018-12-22T07:50:49.738Z,10.65
2018-12-22T07:53:18.387Z,10.62
2018-12-22T08:10:56.473Z,10.48
2018-12-22T08:13:25.079Z,10.48
2018-12-22T08:22:45.643Z,10.48
2018-12-22T08:25:14.403Z,10.48
2018-12-22T08:30:23.904Z,10.50
2018-12-22T08:51:02.749Z,10.59
2018-12-22T08:53:31.601Z,10.62
2018-12-22T08:56:00.207Z,10.63
2018-12-22T08:58:28.875Z,10.66
2018-12-22T09:01:14.359Z,10.70
2018-12-22T09:03:43.021Z,10.71
2018-12-22T09:06:11.964Z,10.74
2018-12-22T09:08:40.651Z,10.79
2018-12-22T09:14:40.590Z,10.83
2018-12-22T09:17:09.486Z,10.85
2018-12-22T09:19:59.100Z,10.88
2018-12-22T09:26:37.841Z,10.93
2018-12-22T09:32:53.065Z,10.96
2018-12-22T09:36:11.911Z,10.99
2018-12-22T09:39:06.674Z,11.00
2018-12-22T09:42:05.292Z,11.03
2018-12-22T09:44:42.063Z,11.04
2018-12-22T09:47:23.712Z,11.06
2018-12-22T09:57:44.124Z,11.05
2018-12-22T10:49:48.782Z,11.23
2018-12-22T10:52:39.164Z,11.26
2018-12-22T11:13:02.594Z,11.45
2018-12-22T11:26:25.379Z,11.58
2018-12-22T11:32:37.709Z,11.57
2018-12-22T11:35:23.443Z,11.58
2018-12-22T11:38:27.508Z,11.58
2018-12-22T11:41:43.269Z,11.61
2018-12-22T11:55:15.877Z,11.68
2018-12-22T12:02:09.549Z,11.73
2018-12-22T12:11:48.417Z,11.74
2018-12-22T12:21:43.587Z,11.70
2018-12-22T12:28:08.884Z,11.73
2018-12-22T12:31:01.424Z,11.76
2018-12-22T12:44:05.749Z,11.81
2018-12-22T13:04:32.151Z,11.82
2018-12-22T13:21:50.626Z,11.73
2018-12-22T13:35:16.823Z,11.72
2018-12-22T14:16:41.195Z,11.93
2018-12-22T14:37:22.104Z,11.72
2018-12-22T14:40:11.547Z,11.68
2018-12-22T15:07:54.262Z,11.42
2018-12-22T15:11:09.888Z,11.39
2018-12-22T15:17:40.184Z,11.35
2018-12-22T15:27:41.061Z,11.31
2018-12-22T15:41:15.387Z,11.22
2018-12-22T15:44:09.912Z,11.20
2018-12-22T16:08:00.979Z,11.03
2018-12-22T16:10:51.017Z,11.01
2018-12-22T16:16:57.482Z,10.97
2018-12-22T16:19:52.031Z,10.96
2018-12-22T16:26:14.439Z,10.94
2018-12-22T16:32:44.100Z,10.95
2018-12-22T16:42:47.810Z,10.95
2018-12-22T16:45:25.118Z,10.94
2018-12-22T16:48:27.773Z,10.95
2018-12-22T16:54:39.753Z,10.91
2018-12-22T17:03:10.436Z,10.86
2018-12-22T17:13:10.612Z,10.73
2018-12-22T17:19:40.416Z,10.70
2018-12-22T17:22:35.225Z,10.67
2018-12-22T17:35:44.771Z,10.62
2018-12-22T17:38:41.020Z,10.61
2018-12-22T17:48:15.894Z,10.57
2018-12-22T17:51:05.787Z,10.58
2018-12-22T18:25:34.853Z,10.56
2018-12-22T18:35:38.711Z,10.51
2018-12-22T18:53:00.871Z,10.39
2018-12-22T19:10:14.983Z,10.22
2018-12-22T19:13:09.645Z,10.21
2018-12-22T19:23:03.532Z,10.24
2018-12-22T19:32:59.744Z,10.19
2018-12-22T19:46:48.333Z,10.11
2018-12-22T19:49:51.105Z,10.09
2018-12-22T19:56:07.337Z,10.01
2018-12-22T19:58:53.251Z,9.99
2018-12-22T20:01:32.795Z,9.97
2018-12-22T20:04:11.577Z,9.94
2018-12-22T20:10:29.351Z,9.87
2018-12-22T20:20:25.576Z,9.81
2018-12-22T20:26:59.254Z,9.77
2018-12-22T20:29:58.030Z,9.75
2018-12-22T20:43:15.682Z,9.69
2018-12-22T20:46:12.213Z,9.70
2018-12-22T20:56:03.503Z,9.67
2018-12-22T21:02:17.910Z,9.65
2018-12-22T21:05:07.820Z,9.63
2018-12-22T21:15:18.310Z,9.58
2018-12-22T21:21:38.449Z,9.59
2018-12-22T21:24:07.060Z,9.62
2018-12-22T21:26:36.757Z,9.64
2018-12-22T21:29:05.371Z,9.66
2018-12-22T21:31:34.032Z,9.66
2018-12-22T21:34:03.871Z,9.65
2018-12-22T21:36:32.605Z,9.65
2018-12-22T21:39:01.220Z,9.64
2018-12-22T21:41:29.859Z,9.63
2018-12-22T21:43:58.532Z,9.62
2018-12-22T21:46:27.156Z,9.61
2018-12-22T21:48:55.822Z,9.59
2018-12-22T21:51:24.480Z,9.58
2018-12-22T21:53:53.169Z,9.59
2018-12-22T21:56:21.859Z,9.58
2018-12-22T21:58:50.780Z,9.57
2018-12-22T22:01:19.364Z,9.57
2018-12-22T22:03:48.001Z,9.55
2018-12-22T22:06:16.876Z,9.53
2018-12-22T22:08:45.564Z,9.53
2018-12-22T22:11:14.756Z,9.53
2018-12-22T22:13:43.540Z,9.52
2018-12-22T22:16:12.214Z,9.51
2018-12-22T22:18:41.373Z,9.51
2018-12-22T22:21:10.291Z,9.50
2018-12-22T22:23:39.043Z,9.50
2018-12-22T22:26:07.769Z,9.50
2018-12-22T22:28:36.588Z,9.50
2018-12-22T22:31:05.265Z,9.50
2018-12-22T22:33:33.940Z,9.51
2018-12-22T22:36:03.340Z,9.52
2018-12-22T22:38:32.217Z,9.53
2018-12-22T22:41:00.948Z,9.54
2018-12-22T22:43:29.716Z,9.55
2018-12-22T22:45:58.448Z,9.58
2018-12-22T22:48:27.062Z,9.59
2018-12-22T22:50:55.832Z,9.60
2018-12-22T22:53:24.541Z,9.62
2018-12-22T22:55:53.440Z,9.63
2018-12-22T22:58:22.221Z,9.63
2018-12-22T23:00:50.957Z,9.65
2018-12-22T23:03:19.616Z,9.67
2018-12-22T23:05:48.275Z,9.69
2018-12-22T23:08:17.029Z,9.69
2018-12-22T23:10:46.087Z,9.70
2018-12-22T23:13:14.708Z,9.71
2018-12-22T23:15:43.457Z,9.71
2018-12-22T23:18:12.112Z,9.72
2018-12-22T23:20:40.738Z,9.72
2018-12-22T23:23:10.241Z,9.73
2018-12-22T23:25:38.995Z,9.74
2018-12-22T23:28:07.747Z,9.74
2018-12-22T23:30:36.491Z,9.73
2018-12-22T23:33:05.174Z,9.74
2018-12-22T23:35:33.964Z,9.76
2018-12-22T23:38:02.695Z,9.78
2018-12-22T23:40:31.383Z,9.79
2018-12-22T23:43:00.207Z,9.80
2018-12-22T23:45:28.944Z,9.82
2018-12-22T23:47:57.596Z,9.82
2018-12-22T23:50:26.814Z,9.83
2018-12-22T23:52:56.044Z,9.83
2018-12-22T23:55:24.753Z,9.84
2018-12-22T23:57:53.380Z,9.84
